sensor_id;sensor_type;location;lat;lon;timestamp;P1;durP1;ratioP1;P2;durP2;ratioP2
64966;SDS011;51710;38.732;-121.358;2023-04-24T00:00:23;1.67;;;0.70;;
64966;SDS011;51710;38.732;-121.358;2023-04-24T00:02:50;2.38;;;0.73;;
64966;SDS011;51710;38.732;-121.358;2023-04-24T00:05:16;2.88;;;0.95;;
64966;SDS011;51710;38.732;-121.358;2023-04-24T00:07:43;2.95;;;0.80;;
64966;SDS011;51710;38.732;-121.358;2023-04-24T00:10:11;1.70;;;0.75;;
64966;SDS011;51710;38.732;-121.358;2023-04-24T00:12:37;1.60;;;0.80;;
64966;SDS011;51710;38.732;-121.358;2023-04-24T00:15:04;3.25;;;0.55;;
64966;SDS011;51710;38.732;-121.358;2023-04-24T00:17:31;1.38;;;0.68;;
64966;SDS011;51710;38.732;-121.358;2023-04-24T00:19:57;2.40;;;0.50;;
64966;SDS011;51710;38.732;-121.358;2023-04-24T00:22:24;1.77;;;0.60;;
64966;SDS011;51710;38.732;-121.358;2023-04-24T00:24:51;5.78;;;0.60;;
64966;SDS011;51710;38.732;-121.358;2023-04-24T00:27:18;2.70;;;0.50;;
64966;SDS011;51710;38.732;-121.358;2023-04-24T00:29:45;1.60;;;0.70;;
64966;SDS011;51710;38.732;-121.358;2023-04-24T00:32:11;1.27;;;0.70;;
64966;SDS011;51710;38.732;-121.358;2023-04-24T00:34:37;2.40;;;0.50;;
64966;SDS011;51710;38.732;-121.358;2023-04-24T00:37:03;2.97;;;0.60;;
64966;SDS011;51710;38.732;-121.358;2023-04-24T00:39:30;1.23;;;0.50;;
64966;SDS011;51710;38.732;-121.358;2023-04-24T00:41:57;3.17;;;0.90;;
64966;SDS011;51710;38.732;-121.358;2023-04-24T00:44:24;1.45;;;0.70;;
64966;SDS011;51710;38.732;-121.358;2023-04-24T00:46:50;2.92;;;1.10;;
64966;SDS011;51710;38.732;-121.358;2023-04-24T00:49:20;2.10;;;0.68;;
64966;SDS011;51710;38.732;-121.358;2023-04-24T00:51:47;2.17;;;0.70;;
64966;SDS011;51710;38.732;-121.358;2023-04-24T00:54:14;2.80;;;0.70;;
64966;SDS011;51710;38.732;-121.358;2023-04-24T00:56:41;0.50;;;0.50;;
64966;SDS011;51710;38.732;-121.358;2023-04-24T00:59:08;1.92;;;0.60;;
64966;SDS011;51710;38.732;-121.358;2023-04-24T01:01:35;3.55;;;0.70;;
64966;SDS011;51710;38.732;-121.358;2023-04-24T01:04:01;4.40;;;0.60;;
64966;SDS011;51710;38.732;-121.358;2023-04-24T01:06:29;2.25;;;1.35;;
64966;SDS011;51710;38.732;-121.358;2023-04-24T01:08:58;6.78;;;1.17;;
64966;SDS011;51710;38.732;-121.358;2023-04-24T01:11:26;1.92;;;0.52;;
64966;SDS011;51710;38.732;-121.358;2023-04-24T01:13:52;3.60;;;1.15;;
64966;SDS011;51710;38.732;-121.358;2023-04-24T01:16:18;1.40;;;0.80;;
64966;SDS011;51710;38.732;-121.358;2023-04-24T01:18:47;3.00;;;0.63;;
64966;SDS011;51710;38.732;-121.358;2023-04-24T01:21:14;3.08;;;0.70;;
64966;SDS011;51710;38.732;-121.358;2023-04-24T01:23:44;2.10;;;0.50;;
64966;SDS011;51710;38.732;-121.358;2023-04-24T01:26:11;2.70;;;0.80;;
64966;SDS011;51710;38.732;-121.358;2023-04-24T01:28:42;1.23;;;0.68;;
64966;SDS011;51710;38.732;-121.358;2023-04-24T01:31:08;2.83;;;0.98;;
64966;SDS011;51710;38.732;-121.358;2023-04-24T01:33:34;3.17;;;0.90;;
64966;SDS011;51710;38.732;-121.358;2023-04-24T01:36:01;2.80;;;0.70;;
64966;SDS011;51710;38.732;-121.358;2023-04-24T01:38:27;1.33;;;0.65;;
64966;SDS011;51710;38.732;-121.358;2023-04-24T01:40:53;3.00;;;0.90;;
64966;SDS011;51710;38.732;-121.358;2023-04-24T01:43:20;1.77;;;0.70;;
64966;SDS011;51710;38.732;-121.358;2023-04-24T01:45:47;1.15;;;0.60;;
64966;SDS011;51710;38.732;-121.358;2023-04-24T01:48:14;1.83;;;0.93;;
64966;SDS011;51710;38.732;-121.358;2023-04-24T01:50:40;1.13;;;0.65;;
64966;SDS011;51710;38.732;-121.358;2023-04-24T01:53:06;2.00;;;0.75;;
64966;SDS011;51710;38.732;-121.358;2023-04-24T01:55:33;4.35;;;0.80;;
64966;SDS011;51710;38.732;-121.358;2023-04-24T01:57:59;2.05;;;0.95;;
64966;SDS011;51710;38.732;-121.358;2023-04-24T02:00:27;1.00;;;0.52;;
64966;SDS011;51710;38.732;-121.358;2023-04-24T02:02:53;2.17;;;1.00;;
64966;SDS011;51710;38.732;-121.358;2023-04-24T02:05:20;2.70;;;0.93;;
64966;SDS011;51710;38.732;-121.358;2023-04-24T02:07:46;3.25;;;0.85;;
64966;SDS011;51710;38.732;-121.358;2023-04-24T02:10:12;7.40;;;0.98;;
64966;SDS011;51710;38.732;-121.358;2023-04-24T02:12:38;1.98;;;0.85;;
64966;SDS011;51710;38.732;-121.358;2023-04-24T02:15:05;4.32;;;1.00;;
64966;SDS011;51710;38.732;-121.358;2023-04-24T02:17:32;2.40;;;0.82;;
64966;SDS011;51710;38.732;-121.358;2023-04-24T02:19:58;1.55;;;0.57;;
64966;SDS011;51710;38.732;-121.358;2023-04-24T02:22:24;2.28;;;0.60;;
64966;SDS011;51710;38.732;-121.358;2023-04-24T02:24:50;2.55;;;0.82;;
64966;SDS011;51710;38.732;-121.358;2023-04-24T02:27:16;3.10;;;1.08;;
64966;SDS011;51710;38.732;-121.358;2023-04-24T02:29:43;1.77;;;0.70;;
64966;SDS011;51710;38.732;-121.358;2023-04-24T02:32:10;0.90;;;0.47;;
64966;SDS011;51710;38.732;-121.358;2023-04-24T02:34:37;6.63;;;1.10;;
64966;SDS011;51710;38.732;-121.358;2023-04-24T02:37:03;3.60;;;0.93;;
64966;SDS011;51710;38.732;-121.358;2023-04-24T02:39:30;2.22;;;0.70;;
64966;SDS011;51710;38.732;-121.358;2023-04-24T02:41:56;1.58;;;0.70;;
64966;SDS011;51710;38.732;-121.358;2023-04-24T02:44:22;2.67;;;0.50;;
64966;SDS011;51710;38.732;-121.358;2023-04-24T02:46:48;5.70;;;0.77;;
64966;SDS011;51710;38.732;-121.358;2023-04-24T02:49:15;4.47;;;0.70;;
64966;SDS011;51710;38.732;-121.358;2023-04-24T02:51:41;1.35;;;0.70;;
64966;SDS011;51710;38.732;-121.358;2023-04-24T02:54:08;1.92;;;0.73;;
64966;SDS011;51710;38.732;-121.358;2023-04-24T02:56:35;1.70;;;0.70;;
64966;SDS011;51710;38.732;-121.358;2023-04-24T02:59:02;3.20;;;0.88;;
64966;SDS011;51710;38.732;-121.358;2023-04-24T03:01:28;2.15;;;0.65;;
64966;SDS011;51710;38.732;-121.358;2023-04-24T03:03:55;1.90;;;1.08;;
64966;SDS011;51710;38.732;-121.358;2023-04-24T03:06:23;9.38;;;1.98;;
64966;SDS011;51710;38.732;-121.358;2023-04-24T03:08:49;1.15;;;0.60;;
64966;SDS011;51710;38.732;-121.358;2023-04-24T03:11:15;3.92;;;0.98;;
64966;SDS011;51710;38.732;-121.358;2023-04-24T03:13:42;3.65;;;0.85;;
64966;SDS011;51710;38.732;-121.358;2023-04-24T03:16:08;2.95;;;0.70;;
64966;SDS011;51710;38.732;-121.358;2023-04-24T03:18:34;3.67;;;0.95;;
64966;SDS011;51710;38.732;-121.358;2023-04-24T03:21:00;2.22;;;0.70;;
64966;SDS011;51710;38.732;-121.358;2023-04-24T03:23:27;2.95;;;0.63;;
64966;SDS011;51710;38.732;-121.358;2023-04-24T03:25:53;10.07;;;0.70;;
64966;SDS011;51710;38.732;-121.358;2023-04-24T03:28:20;2.65;;;0.90;;
64966;SDS011;51710;38.732;-121.358;2023-04-24T03:30:46;2.58;;;0.73;;
64966;SDS011;51710;38.732;-121.358;2023-04-24T03:33:12;5.68;;;1.10;;
64966;SDS011;51710;38.732;-121.358;2023-04-24T03:35:39;2.60;;;1.05;;
64966;SDS011;51710;38.732;-121.358;2023-04-24T03:38:05;5.25;;;1.00;;
64966;SDS011;51710;38.732;-121.358;2023-04-24T03:40:31;4.70;;;1.02;;
64966;SDS011;51710;38.732;-121.358;2023-04-24T03:42:58;5.05;;;0.98;;
64966;SDS011;51710;38.732;-121.358;2023-04-24T03:45:25;2.30;;;0.93;;
64966;SDS011;51710;38.732;-121.358;2023-04-24T03:47:51;2.45;;;1.25;;
64966;SDS011;51710;38.732;-121.358;2023-04-24T03:50:17;5.07;;;0.85;;
64966;SDS011;51710;38.732;-121.358;2023-04-24T03:52:43;3.17;;;0.65;;
64966;SDS011;51710;38.732;-121.358;2023-04-24T03:55:10;5.53;;;1.88;;
64966;SDS011;51710;38.732;-121.358;2023-04-24T03:57:39;2.55;;;1.00;;
64966;SDS011;51710;38.732;-121.358;2023-04-24T04:00:08;4.10;;;1.00;;
64966;SDS011;51710;38.732;-121.358;2023-04-24T04:02:35;1.55;;;0.70;;
64966;SDS011;51710;38.732;-121.358;2023-04-24T04:05:01;3.35;;;1.00;;
64966;SDS011;51710;38.732;-121.358;2023-04-24T04:07:27;3.72;;;1.33;;
64966;SDS011;51710;38.732;-121.358;2023-04-24T04:09:55;3.03;;;1.10;;
64966;SDS011;51710;38.732;-121.358;2023-04-24T04:12:21;3.15;;;0.95;;
64966;SDS011;51710;38.732;-121.358;2023-04-24T04:14:47;2.70;;;0.90;;
64966;SDS011;51710;38.732;-121.358;2023-04-24T04:17:13;4.07;;;1.08;;
64966;SDS011;51710;38.732;-121.358;2023-04-24T04:19:40;4.38;;;1.30;;
64966;SDS011;51710;38.732;-121.358;2023-04-24T04:22:07;1.98;;;0.90;;
64966;SDS011;51710;38.732;-121.358;2023-04-24T04:24:33;1.38;;;0.88;;
64966;SDS011;51710;38.732;-121.358;2023-04-24T04:27:03;3.17;;;1.10;;
64966;SDS011;51710;38.732;-121.358;2023-04-24T04:29:30;4.50;;;1.10;;
64966;SDS011;51710;38.732;-121.358;2023-04-24T04:31:57;2.53;;;0.98;;
64966;SDS011;51710;38.732;-121.358;2023-04-24T04:34:24;3.00;;;0.82;;
64966;SDS011;51710;38.732;-121.358;2023-04-24T04:36:50;3.92;;;0.98;;
64966;SDS011;51710;38.732;-121.358;2023-04-24T04:39:16;3.42;;;0.80;;
64966;SDS011;51710;38.732;-121.358;2023-04-24T04:41:43;2.80;;;0.90;;
64966;SDS011;51710;38.732;-121.358;2023-04-24T04:44:14;3.90;;;0.95;;
64966;SDS011;51710;38.732;-121.358;2023-04-24T04:46:40;3.60;;;0.93;;
64966;SDS011;51710;38.732;-121.358;2023-04-24T04:49:07;4.93;;;1.10;;
64966;SDS011;51710;38.732;-121.358;2023-04-24T04:51:34;2.53;;;1.10;;
64966;SDS011;51710;38.732;-121.358;2023-04-24T04:54:00;3.22;;;1.25;;
64966;SDS011;51710;38.732;-121.358;2023-04-24T04:56:27;3.28;;;0.90;;
64966;SDS011;51710;38.732;-121.358;2023-04-24T04:58:53;3.80;;;1.00;;
64966;SDS011;51710;38.732;-121.358;2023-04-24T05:01:19;4.85;;;1.00;;
64966;SDS011;51710;38.732;-121.358;2023-04-24T05:03:46;6.13;;;1.02;;
64966;SDS011;51710;38.732;-121.358;2023-04-24T05:06:12;4.03;;;1.10;;
64966;SDS011;51710;38.732;-121.358;2023-04-24T05:08:38;4.07;;;1.20;;
64966;SDS011;51710;38.732;-121.358;2023-04-24T05:11:05;3.22;;;1.17;;
64966;SDS011;51710;38.732;-121.358;2023-04-24T05:13:31;3.55;;;1.55;;
64966;SDS011;51710;38.732;-121.358;2023-04-24T05:15:57;5.38;;;1.10;;
64966;SDS011;51710;38.732;-121.358;2023-04-24T05:18:24;4.35;;;1.02;;
64966;SDS011;51710;38.732;-121.358;2023-04-24T05:20:50;5.53;;;1.42;;
64966;SDS011;51710;38.732;-121.358;2023-04-24T05:23:16;4.35;;;1.02;;
64966;SDS011;51710;38.732;-121.358;2023-04-24T05:25:43;3.80;;;1.30;;
64966;SDS011;51710;38.732;-121.358;2023-04-24T05:28:09;5.90;;;1.35;;
64966;SDS011;51710;38.732;-121.358;2023-04-24T05:30:35;4.50;;;1.38;;
64966;SDS011;51710;38.732;-121.358;2023-04-24T05:33:01;3.75;;;1.00;;
64966;SDS011;51710;38.732;-121.358;2023-04-24T05:35:28;2.90;;;0.85;;
64966;SDS011;51710;38.732;-121.358;2023-04-24T05:37:55;3.45;;;0.98;;
64966;SDS011;51710;38.732;-121.358;2023-04-24T05:40:21;3.08;;;1.10;;
64966;SDS011;51710;38.732;-121.358;2023-04-24T05:42:47;3.92;;;1.00;;
64966;SDS011;51710;38.732;-121.358;2023-04-24T05:45:13;4.32;;;0.90;;
64966;SDS011;51710;38.732;-121.358;2023-04-24T05:47:42;3.30;;;1.45;;
64966;SDS011;51710;38.732;-121.358;2023-04-24T05:50:09;3.20;;;1.10;;
64966;SDS011;51710;38.732;-121.358;2023-04-24T05:52:36;3.45;;;1.20;;
64966;SDS011;51710;38.732;-121.358;2023-04-24T05:55:03;4.93;;;1.30;;
64966;SDS011;51710;38.732;-121.358;2023-04-24T05:57:29;4.47;;;1.05;;
64966;SDS011;51710;38.732;-121.358;2023-04-24T05:59:55;3.90;;;1.05;;
64966;SDS011;51710;38.732;-121.358;2023-04-24T06:02:22;3.50;;;1.00;;
64966;SDS011;51710;38.732;-121.358;2023-04-24T06:04:48;5.93;;;1.20;;
64966;SDS011;51710;38.732;-121.358;2023-04-24T06:07:14;4.22;;;1.08;;
64966;SDS011;51710;38.732;-121.358;2023-04-24T06:09:41;5.18;;;0.90;;
64966;SDS011;51710;38.732;-121.358;2023-04-24T06:12:07;3.50;;;0.90;;
64966;SDS011;51710;38.732;-121.358;2023-04-24T06:14:34;6.28;;;1.20;;
64966;SDS011;51710;38.732;-121.358;2023-04-24T06:17:00;3.42;;;1.08;;
64966;SDS011;51710;38.732;-121.358;2023-04-24T06:19:26;3.92;;;1.10;;
64966;SDS011;51710;38.732;-121.358;2023-04-24T06:21:52;5.32;;;1.00;;
64966;SDS011;51710;38.732;-121.358;2023-04-24T06:24:18;3.83;;;0.90;;
64966;SDS011;51710;38.732;-121.358;2023-04-24T06:26:45;5.22;;;1.20;;
64966;SDS011;51710;38.732;-121.358;2023-04-24T06:29:11;3.83;;;0.88;;
64966;SDS011;51710;38.732;-121.358;2023-04-24T06:31:37;2.47;;;0.95;;
64966;SDS011;51710;38.732;-121.358;2023-04-24T06:34:04;6.25;;;1.08;;
64966;SDS011;51710;38.732;-121.358;2023-04-24T06:36:30;5.82;;;0.90;;
64966;SDS011;51710;38.732;-121.358;2023-04-24T06:38:59;5.75;;;1.35;;
64966;SDS011;51710;38.732;-121.358;2023-04-24T06:41:25;3.47;;;0.95;;
64966;SDS011;51710;38.732;-121.358;2023-04-24T06:43:52;4.13;;;1.13;;
64966;SDS011;51710;38.732;-121.358;2023-04-24T06:46:18;3.80;;;1.25;;
64966;SDS011;51710;38.732;-121.358;2023-04-24T06:48:47;3.03;;;1.10;;
64966;SDS011;51710;38.732;-121.358;2023-04-24T06:51:13;3.45;;;0.90;;
64966;SDS011;51710;38.732;-121.358;2023-04-24T06:53:39;3.75;;;1.10;;
64966;SDS011;51710;38.732;-121.358;2023-04-24T06:56:06;5.97;;;1.10;;
64966;SDS011;51710;38.732;-121.358;2023-04-24T06:58:32;4.03;;;0.90;;
64966;SDS011;51710;38.732;-121.358;2023-04-24T07:00:58;4.15;;;1.90;;
64966;SDS011;51710;38.732;-121.358;2023-04-24T07:03:24;4.03;;;1.20;;
64966;SDS011;51710;38.732;-121.358;2023-04-24T07:05:51;3.47;;;1.00;;
64966;SDS011;51710;38.732;-121.358;2023-04-24T07:08:18;3.05;;;1.00;;
64966;SDS011;51710;38.732;-121.358;2023-04-24T07:10:45;4.07;;;0.68;;
64966;SDS011;51710;38.732;-121.358;2023-04-24T07:13:12;5.00;;;1.38;;
64966;SDS011;51710;38.732;-121.358;2023-04-24T07:15:38;5.10;;;1.05;;
64966;SDS011;51710;38.732;-121.358;2023-04-24T07:18:06;6.18;;;1.23;;
64966;SDS011;51710;38.732;-121.358;2023-04-24T07:20:32;6.88;;;1.20;;
64966;SDS011;51710;38.732;-121.358;2023-04-24T07:22:59;5.65;;;1.67;;
64966;SDS011;51710;38.732;-121.358;2023-04-24T07:25:25;3.40;;;1.13;;
64966;SDS011;51710;38.732;-121.358;2023-04-24T07:27:52;4.13;;;0.98;;
64966;SDS011;51710;38.732;-121.358;2023-04-24T07:30:18;5.20;;;1.10;;
64966;SDS011;51710;38.732;-121.358;2023-04-24T07:32:45;7.28;;;1.00;;
64966;SDS011;51710;38.732;-121.358;2023-04-24T07:35:11;4.68;;;1.35;;
64966;SDS011;51710;38.732;-121.358;2023-04-24T07:37:37;8.20;;;1.80;;
64966;SDS011;51710;38.732;-121.358;2023-04-24T07:40:04;6.50;;;2.03;;
64966;SDS011;51710;38.732;-121.358;2023-04-24T07:42:30;6.85;;;1.17;;
64966;SDS011;51710;38.732;-121.358;2023-04-24T07:44:59;6.97;;;1.30;;
64966;SDS011;51710;38.732;-121.358;2023-04-24T07:47:25;3.88;;;1.23;;
64966;SDS011;51710;38.732;-121.358;2023-04-24T07:49:52;7.22;;;1.38;;
64966;SDS011;51710;38.732;-121.358;2023-04-24T07:52:18;7.75;;;1.52;;
64966;SDS011;51710;38.732;-121.358;2023-04-24T07:54:44;5.28;;;1.02;;
64966;SDS011;51710;38.732;-121.358;2023-04-24T07:57:10;6.53;;;1.23;;
64966;SDS011;51710;38.732;-121.358;2023-04-24T07:59:37;5.93;;;1.25;;
64966;SDS011;51710;38.732;-121.358;2023-04-24T08:02:03;7.93;;;1.42;;
64966;SDS011;51710;38.732;-121.358;2023-04-24T08:04:29;8.43;;;1.73;;
64966;SDS011;51710;38.732;-121.358;2023-04-24T08:06:55;5.22;;;1.50;;
64966;SDS011;51710;38.732;-121.358;2023-04-24T08:09:22;4.00;;;1.40;;
64966;SDS011;51710;38.732;-121.358;2023-04-24T08:11:48;5.50;;;1.92;;
64966;SDS011;51710;38.732;-121.358;2023-04-24T08:14:15;7.70;;;1.42;;
64966;SDS011;51710;38.732;-121.358;2023-04-24T08:16:41;9.27;;;1.40;;
64966;SDS011;51710;38.732;-121.358;2023-04-24T08:19:08;4.57;;;1.20;;
64966;SDS011;51710;38.732;-121.358;2023-04-24T08:21:34;5.47;;;1.40;;
64966;SDS011;51710;38.732;-121.358;2023-04-24T08:24:00;6.70;;;1.20;;
64966;SDS011;51710;38.732;-121.358;2023-04-24T08:26:30;7.05;;;1.40;;
64966;SDS011;51710;38.732;-121.358;2023-04-24T08:28:57;6.78;;;1.30;;
64966;SDS011;51710;38.732;-121.358;2023-04-24T08:31:23;6.82;;;1.90;;
64966;SDS011;51710;38.732;-121.358;2023-04-24T08:33:51;4.32;;;1.20;;
64966;SDS011;51710;38.732;-121.358;2023-04-24T08:36:17;7.78;;;1.77;;
64966;SDS011;51710;38.732;-121.358;2023-04-24T08:38:43;7.18;;;1.73;;
64966;SDS011;51710;38.732;-121.358;2023-04-24T08:41:11;4.00;;;1.23;;
64966;SDS011;51710;38.732;-121.358;2023-04-24T08:43:40;6.03;;;1.85;;
64966;SDS011;51710;38.732;-121.358;2023-04-24T08:46:07;7.10;;;1.60;;
64966;SDS011;51710;38.732;-121.358;2023-04-24T08:48:35;3.95;;;1.40;;
64966;SDS011;51710;38.732;-121.358;2023-04-24T08:51:01;4.60;;;1.10;;
64966;SDS011;51710;38.732;-121.358;2023-04-24T08:53:30;6.65;;;1.45;;
64966;SDS011;51710;38.732;-121.358;2023-04-24T08:55:58;8.27;;;1.55;;
64966;SDS011;51710;38.732;-121.358;2023-04-24T08:58:26;9.00;;;1.67;;
64966;SDS011;51710;38.732;-121.358;2023-04-24T09:00:56;5.72;;;1.20;;
64966;SDS011;51710;38.732;-121.358;2023-04-24T09:03:24;7.72;;;2.10;;
64966;SDS011;51710;38.732;-121.358;2023-04-24T09:05:54;8.00;;;1.75;;
64966;SDS011;51710;38.732;-121.358;2023-04-24T09:08:24;6.82;;;1.58;;
64966;SDS011;51710;38.732;-121.358;2023-04-24T09:10:51;10.10;;;1.80;;
64966;SDS011;51710;38.732;-121.358;2023-04-24T09:13:18;7.18;;;2.03;;
64966;SDS011;51710;38.732;-121.358;2023-04-24T09:15:47;5.18;;;1.55;;
64966;SDS011;51710;38.732;-121.358;2023-04-24T09:18:14;9.93;;;1.30;;
64966;SDS011;51710;38.732;-121.358;2023-04-24T09:23:30;7.65;;;1.45;;
64966;SDS011;51710;38.732;-121.358;2023-04-24T09:25:57;7.72;;;1.98;;
64966;SDS011;51710;38.732;-121.358;2023-04-24T09:28:26;7.68;;;1.92;;
64966;SDS011;51710;38.732;-121.358;2023-04-24T09:31:08;7.55;;;1.75;;
64966;SDS011;51710;38.732;-121.358;2023-04-24T09:33:38;10.27;;;1.60;;
64966;SDS011;51710;38.732;-121.358;2023-04-24T09:36:04;5.82;;;1.55;;
64966;SDS011;51710;38.732;-121.358;2023-04-24T09:38:35;8.55;;;1.85;;
64966;SDS011;51710;38.732;-121.358;2023-04-24T09:41:03;9.70;;;1.73;;
64966;SDS011;51710;38.732;-121.358;2023-04-24T09:43:32;8.57;;;1.70;;
64966;SDS011;51710;38.732;-121.358;2023-04-24T09:45:59;11.85;;;1.90;;
64966;SDS011;51710;38.732;-121.358;2023-04-24T09:48:33;9.00;;;2.08;;
64966;SDS011;51710;38.732;-121.358;2023-04-24T09:51:00;7.97;;;1.30;;
64966;SDS011;51710;38.732;-121.358;2023-04-24T09:53:29;9.68;;;1.85;;
64966;SDS011;51710;38.732;-121.358;2023-04-24T09:55:56;7.20;;;1.70;;
64966;SDS011;51710;38.732;-121.358;2023-04-24T09:58:28;5.85;;;1.55;;
64966;SDS011;51710;38.732;-121.358;2023-04-24T10:00:55;9.30;;;2.35;;
64966;SDS011;51710;38.732;-121.358;2023-04-24T10:03:25;7.32;;;1.42;;
64966;SDS011;51710;38.732;-121.358;2023-04-24T10:05:57;7.53;;;1.58;;
64966;SDS011;51710;38.732;-121.358;2023-04-24T10:08:32;8.02;;;2.08;;
64966;SDS011;51710;38.732;-121.358;2023-04-24T10:11:00;6.15;;;1.60;;
64966;SDS011;51710;38.732;-121.358;2023-04-24T10:13:27;7.60;;;1.52;;
64966;SDS011;51710;38.732;-121.358;2023-04-24T10:15:54;7.13;;;1.70;;
64966;SDS011;51710;38.732;-121.358;2023-04-24T10:18:22;6.15;;;1.88;;
64966;SDS011;51710;38.732;-121.358;2023-04-24T10:20:49;4.97;;;1.27;;
64966;SDS011;51710;38.732;-121.358;2023-04-24T10:23:15;9.02;;;2.00;;
64966;SDS011;51710;38.732;-121.358;2023-04-24T10:25:44;7.07;;;1.65;;
64966;SDS011;51710;38.732;-121.358;2023-04-24T10:28:10;6.15;;;1.73;;
64966;SDS011;51710;38.732;-121.358;2023-04-24T10:30:38;7.82;;;1.80;;
64966;SDS011;51710;38.732;-121.358;2023-04-24T10:33:10;7.65;;;2.85;;
64966;SDS011;51710;38.732;-121.358;2023-04-24T10:35:39;10.55;;;2.22;;
64966;SDS011;51710;38.732;-121.358;2023-04-24T10:38:13;8.20;;;1.55;;
64966;SDS011;51710;38.732;-121.358;2023-04-24T10:40:42;14.98;;;1.80;;
64966;SDS011;51710;38.732;-121.358;2023-04-24T10:43:09;8.82;;;1.95;;
64966;SDS011;51710;38.732;-121.358;2023-04-24T10:45:36;8.32;;;1.52;;
64966;SDS011;51710;38.732;-121.358;2023-04-24T10:48:04;10.48;;;2.42;;
64966;SDS011;51710;38.732;-121.358;2023-04-24T10:53:17;6.18;;;1.45;;
64966;SDS011;51710;38.732;-121.358;2023-04-24T10:55:49;6.82;;;1.70;;
64966;SDS011;51710;38.732;-121.358;2023-04-24T10:58:21;6.57;;;1.40;;
64966;SDS011;51710;38.732;-121.358;2023-04-24T11:00:58;6.10;;;1.23;;
64966;SDS011;51710;38.732;-121.358;2023-04-24T11:03:26;6.32;;;1.63;;
64966;SDS011;51710;38.732;-121.358;2023-04-24T11:05:57;12.80;;;2.20;;
64966;SDS011;51710;38.732;-121.358;2023-04-24T11:10:57;10.55;;;1.75;;
64966;SDS011;51710;38.732;-121.358;2023-04-24T11:13:25;5.95;;;1.92;;
64966;SDS011;51710;38.732;-121.358;2023-04-24T11:16:12;7.50;;;2.15;;
64966;SDS011;51710;38.732;-121.358;2023-04-24T11:19:16;8.48;;;1.30;;
64966;SDS011;51710;38.732;-121.358;2023-04-24T11:24:32;6.82;;;1.98;;
64966;SDS011;51710;38.732;-121.358;2023-04-24T11:27:20;8.65;;;1.80;;
64966;SDS011;51710;38.732;-121.358;2023-04-24T11:32:28;6.70;;;1.63;;
64966;SDS011;51710;38.732;-121.358;2023-04-24T11:35:03;11.90;;;1.70;;
64966;SDS011;51710;38.732;-121.358;2023-04-24T11:37:41;6.25;;;1.40;;
64966;SDS011;51710;38.732;-121.358;2023-04-24T11:40:09;7.00;;;1.88;;
64966;SDS011;51710;38.732;-121.358;2023-04-24T11:42:38;7.38;;;2.10;;
64966;SDS011;51710;38.732;-121.358;2023-04-24T11:45:10;9.80;;;2.25;;
64966;SDS011;51710;38.732;-121.358;2023-04-24T11:47:38;5.80;;;1.63;;
64966;SDS011;51710;38.732;-121.358;2023-04-24T11:50:05;6.95;;;1.58;;
64966;SDS011;51710;38.732;-121.358;2023-04-24T11:52:33;6.45;;;1.85;;
64966;SDS011;51710;38.732;-121.358;2023-04-24T11:55:03;5.90;;;1.90;;
64966;SDS011;51710;38.732;-121.358;2023-04-24T11:57:32;8.80;;;1.95;;
64966;SDS011;51710;38.732;-121.358;2023-04-24T12:00:02;9.75;;;1.92;;
64966;SDS011;51710;38.732;-121.358;2023-04-24T12:04:59;4.20;;;1.42;;
64966;SDS011;51710;38.732;-121.358;2023-04-24T12:07:25;6.93;;;1.70;;
64966;SDS011;51710;38.732;-121.358;2023-04-24T12:09:55;8.23;;;1.77;;
64966;SDS011;51710;38.732;-121.358;2023-04-24T12:12:24;9.73;;;1.92;;
64966;SDS011;51710;38.732;-121.358;2023-04-24T12:14:54;7.07;;;1.42;;
64966;SDS011;51710;38.732;-121.358;2023-04-24T12:17:29;9.30;;;2.53;;
64966;SDS011;51710;38.732;-121.358;2023-04-24T12:19:57;8.40;;;1.85;;
64966;SDS011;51710;38.732;-121.358;2023-04-24T12:22:42;9.35;;;2.33;;
64966;SDS011;51710;38.732;-121.358;2023-04-24T12:25:16;7.63;;;1.70;;
64966;SDS011;51710;38.732;-121.358;2023-04-24T12:27:44;12.98;;;2.13;;
64966;SDS011;51710;38.732;-121.358;2023-04-24T12:30:12;8.23;;;1.73;;
64966;SDS011;51710;38.732;-121.358;2023-04-24T12:32:42;9.13;;;2.00;;
64966;SDS011;51710;38.732;-121.358;2023-04-24T12:35:10;12.23;;;2.80;;
64966;SDS011;51710;38.732;-121.358;2023-04-24T12:37:37;7.97;;;1.88;;
64966;SDS011;51710;38.732;-121.358;2023-04-24T12:42:50;8.63;;;1.65;;
64966;SDS011;51710;38.732;-121.358;2023-04-24T12:45:17;6.28;;;1.73;;
64966;SDS011;51710;38.732;-121.358;2023-04-24T12:47:44;5.97;;;1.52;;
64966;SDS011;51710;38.732;-121.358;2023-04-24T12:50:12;5.60;;;1.52;;
64966;SDS011;51710;38.732;-121.358;2023-04-24T12:52:40;7.30;;;1.83;;
64966;SDS011;51710;38.732;-121.358;2023-04-24T12:55:07;9.13;;;2.15;;
64966;SDS011;51710;38.732;-121.358;2023-04-24T12:57:34;9.23;;;1.98;;
64966;SDS011;51710;38.732;-121.358;2023-04-24T13:00:02;7.13;;;1.58;;
64966;SDS011;51710;38.732;-121.358;2023-04-24T13:02:31;6.32;;;1.63;;
64966;SDS011;51710;38.732;-121.358;2023-04-24T13:04:58;6.95;;;1.60;;
64966;SDS011;51710;38.732;-121.358;2023-04-24T13:07:24;6.32;;;1.77;;
64966;SDS011;51710;38.732;-121.358;2023-04-24T13:09:51;8.38;;;1.70;;
64966;SDS011;51710;38.732;-121.358;2023-04-24T13:12:18;6.95;;;1.80;;
64966;SDS011;51710;38.732;-121.358;2023-04-24T13:14:45;5.28;;;1.55;;
64966;SDS011;51710;38.732;-121.358;2023-04-24T13:17:12;7.50;;;1.80;;
64966;SDS011;51710;38.732;-121.358;2023-04-24T13:19:40;6.47;;;2.03;;
64966;SDS011;51710;38.732;-121.358;2023-04-24T13:22:08;7.88;;;2.22;;
64966;SDS011;51710;38.732;-121.358;2023-04-24T13:24:35;8.35;;;1.70;;
64966;SDS011;51710;38.732;-121.358;2023-04-24T13:27:02;11.63;;;2.55;;
64966;SDS011;51710;38.732;-121.358;2023-04-24T13:29:29;5.28;;;1.42;;
64966;SDS011;51710;38.732;-121.358;2023-04-24T13:31:55;8.85;;;1.75;;
64966;SDS011;51710;38.732;-121.358;2023-04-24T13:34:25;8.60;;;2.15;;
64966;SDS011;51710;38.732;-121.358;2023-04-24T13:36:52;8.57;;;1.77;;
64966;SDS011;51710;38.732;-121.358;2023-04-24T13:39:21;7.57;;;1.48;;
64966;SDS011;51710;38.732;-121.358;2023-04-24T13:41:48;6.38;;;1.50;;
64966;SDS011;51710;38.732;-121.358;2023-04-24T13:44:15;7.82;;;2.95;;
64966;SDS011;51710;38.732;-121.358;2023-04-24T13:46:43;7.60;;;1.70;;
64966;SDS011;51710;38.732;-121.358;2023-04-24T13:49:11;7.88;;;2.10;;
64966;SDS011;51710;38.732;-121.358;2023-04-24T13:51:38;12.80;;;2.20;;
64966;SDS011;51710;38.732;-121.358;2023-04-24T13:54:05;8.73;;;1.88;;
64966;SDS011;51710;38.732;-121.358;2023-04-24T13:56:31;7.68;;;1.58;;
64966;SDS011;51710;38.732;-121.358;2023-04-24T13:58:57;8.18;;;1.52;;
64966;SDS011;51710;38.732;-121.358;2023-04-24T14:01:24;9.05;;;2.10;;
64966;SDS011;51710;38.732;-121.358;2023-04-24T14:03:51;8.15;;;1.95;;
64966;SDS011;51710;38.732;-121.358;2023-04-24T14:06:18;7.80;;;1.67;;
64966;SDS011;51710;38.732;-121.358;2023-04-24T14:08:45;8.43;;;1.88;;
64966;SDS011;51710;38.732;-121.358;2023-04-24T14:11:12;7.88;;;1.98;;
64966;SDS011;51710;38.732;-121.358;2023-04-24T14:13:38;6.68;;;1.95;;
64966;SDS011;51710;38.732;-121.358;2023-04-24T14:16:08;8.80;;;1.45;;
64966;SDS011;51710;38.732;-121.358;2023-04-24T14:18:36;8.13;;;1.80;;
64966;SDS011;51710;38.732;-121.358;2023-04-24T14:21:03;8.07;;;1.90;;
64966;SDS011;51710;38.732;-121.358;2023-04-24T14:23:30;7.93;;;2.22;;
64966;SDS011;51710;38.732;-121.358;2023-04-24T14:25:57;6.32;;;2.03;;
64966;SDS011;51710;38.732;-121.358;2023-04-24T14:28:24;5.53;;;1.55;;